DAOB/TID METAR and TAF weather

Enter ICAO airport designator
Station Type Date Time Source
DAOB METAR 2020/02/29 02:00 UTC NOAA

DAOB 290200Z 27003KT CAVOK 10/M10 Q1021


Station Type Date Time Source
DAOB Decoded METAR 2020/02/29 02:00 UTC NOAA

Tiaret, Algeria (DAOB) 35-15N 001-26E 1127M
Feb 28, 2020 - 09:00 PM EST / 2020.02.29 0200 UTC
Wind: from the W (270 degrees) at 3 MPH (3 KT):0
Visibility: greater than 7 mile(s):0
Temperature: 50 F (10 C)
Dew Point: 14 F (-10 C)
Relative Humidity: 23%
Pressure (altimeter): 30.15 in. Hg (1021 hPa)
ob: DAOB 290200Z 27003KT CAVOK 10/M10 Q1021
cycle: 2

Station Type Date Time Source
DAOB TAF 2020/02/28 18:33 UTC NOAA

TAF DAOB 281700Z 2818/2918 17006KT CAVOK
BECMG 2909/2912 24012KT

Example: see airport list